createdAt,value
2019-01-02T00:00:57.380Z,99292.81
2019-01-02T00:04:53.372Z,99291.17
2019-01-02T00:08:35.734Z,99292.08
2019-01-02T00:11:46.152Z,99295.88
2019-01-02T00:14:59.413Z,99288.70
2019-01-02T00:18:25.811Z,99289.64
2019-01-02T00:21:24.892Z,99299.83
2019-01-02T00:26:46.173Z,99289.69
2019-01-02T00:29:26.712Z,99284.48
2019-01-02T00:32:03.940Z,99295.67
2019-01-02T00:37:34.183Z,99309.78
2019-01-02T00:42:44.817Z,99312.60
2019-01-02T00:45:36.384Z,99305.93
2019-01-02T00:48:09.100Z,99310.75
2019-01-02T00:50:46.833Z,99314.51
2019-01-02T00:53:40.133Z,99314.12
2019-01-02T00:56:14.685Z,99317.13
2019-01-02T00:58:48.053Z,99325.63
2019-01-02T01:05:03.967Z,99345.55
2019-01-02T01:07:38.217Z,99342.14
2019-01-02T01:13:25.204Z,99343.78
2019-01-02T01:16:22.460Z,99352.92
2019-01-02T01:18:53.489Z,99352.02
2019-01-02T01:32:57.224Z,99378.03
2019-01-02T01:36:05.803Z,99375.05
2019-01-02T01:38:48.622Z,99226.64
2019-01-02T01:41:21.535Z,99377.59
2019-01-02T01:46:58.105Z,99387.17
2019-01-02T01:49:53.324Z,99397.95
2019-01-02T01:52:28.294Z,99395.88
2019-01-02T01:55:18.378Z,99396.30
2019-01-02T02:01:30.354Z,99393.36
2019-01-02T02:04:13.535Z,99394.93
2019-01-02T02:10:23.125Z,99407.87
2019-01-02T02:12:54.026Z,99381.25
2019-01-02T02:16:06.956Z,99383.06
2019-01-02T02:18:58.746Z,99389.17
2019-01-02T02:32:20.025Z,99364.48
2019-01-02T02:35:10.164Z,99372.08
2019-01-02T02:38:03.408Z,99358.91
2019-01-02T02:41:00.208Z,99362.20
2019-01-02T02:43:31.567Z,99356.46
2019-01-02T02:46:23.297Z,99378.07
2019-01-02T02:52:16.570Z,99379.11
2019-01-02T02:54:48.063Z,99379.11
2019-01-02T02:57:18.660Z,99381.70
2019-01-02T03:02:23.798Z,99387.34
2019-01-02T03:04:56.033Z,99379.97
2019-01-02T03:07:39.231Z,99389.98
2019-01-02T03:13:28.130Z,99396.06
2019-01-02T03:16:07.758Z,99390.05
2019-01-02T03:31:38.586Z,99415.56
2019-01-02T03:34:34.615Z,99417.42
2019-01-02T03:40:24.613Z,99398.56
2019-01-02T03:43:27.910Z,99408.00
2019-01-02T03:46:19.759Z,99411.55
2019-01-02T03:48:52.924Z,99412.41
2019-01-02T03:51:27.709Z,99423.27
2019-01-02T03:57:19.503Z,99425.04
2019-01-02T04:00:04.151Z,99422.77
2019-01-02T04:02:36.821Z,99426.73
2019-01-02T04:05:16.702Z,99427.55
2019-01-02T04:07:54.920Z,99428.80
2019-01-02T04:10:25.443Z,99429.27
2019-01-02T04:12:57.703Z,99433.62
2019-01-02T04:15:29.523Z,99417.28
2019-01-02T04:17:59.902Z,99424.25
2019-01-02T04:20:31.548Z,99442.44
2019-01-02T04:23:01.902Z,99435.51
2019-01-02T04:25:32.393Z,99444.56
2019-01-02T04:28:04.439Z,99420.45
2019-01-02T04:30:35.051Z,99418.02
2019-01-02T04:33:05.434Z,99423.62
2019-01-02T04:39:00.187Z,99420.56
2019-01-02T04:41:52.977Z,99426.24
2019-01-02T04:48:00.781Z,99444.67
2019-01-02T04:50:31.861Z,99430.52
2019-01-02T04:56:43.817Z,99440.04
2019-01-02T04:59:39.995Z,99436.52
2019-01-02T05:02:50.046Z,99425.70
2019-01-02T05:09:08.957Z,99435.55
2019-01-02T05:11:58.781Z,99440.20
2019-01-02T05:15:10.526Z,99428.60
2019-01-02T05:17:44.893Z,99438.95
2019-01-02T05:23:50.968Z,99472.70
2019-01-02T05:29:57.836Z,99433.14
2019-01-02T05:38:58.897Z,99453.26
2019-01-02T05:47:35.435Z,99458.00
2019-01-02T05:53:59.246Z,99456.12
2019-01-02T05:59:56.228Z,99450.31
2019-01-02T06:03:09.308Z,99439.11
2019-01-02T06:06:08.328Z,99331.30
2019-01-02T06:08:38.685Z,99442.23
2019-01-02T06:11:47.934Z,99451.28
2019-01-02T06:18:28.728Z,99465.47
2019-01-02T06:21:22.354Z,99459.44
2019-01-02T06:24:20.308Z,99456.81
2019-01-02T06:26:53.832Z,99461.99
2019-01-02T06:32:19.852Z,99451.21
2019-01-02T06:37:47.528Z,99468.42
2019-01-02T06:43:55.381Z,99464.58
2019-01-02T06:53:16.921Z,99361.44
2019-01-02T06:56:08.473Z,99459.44
2019-01-02T06:59:03.828Z,99465.52
2019-01-02T07:01:36.526Z,99465.91
2019-01-02T07:04:36.859Z,99468.09
2019-01-02T07:09:48.023Z,99470.64
2019-01-02T07:12:55.646Z,99475.39
2019-01-02T07:15:49.634Z,99471.94
2019-01-02T07:21:48.080Z,99481.39
2019-01-02T07:24:40.491Z,99495.55
2019-01-02T07:30:25.018Z,99497.24
2019-01-02T07:33:06.437Z,99490.77
2019-01-02T07:36:14.862Z,99348.75
2019-01-02T07:39:31.789Z,99499.83
2019-01-02T07:42:55.367Z,99505.07
2019-01-02T07:45:51.266Z,99509.75
2019-01-02T07:49:04.094Z,99514.52
2019-01-02T07:52:12.723Z,99523.14
2019-01-02T07:55:10.536Z,99521.81
2019-01-02T07:58:23.734Z,99519.16
2019-01-02T08:01:33.776Z,99520.82
2019-01-02T08:05:05.887Z,99522.55
2019-01-02T08:10:33.216Z,99526.09
2019-01-02T08:13:46.968Z,99529.95
2019-01-02T08:16:50.484Z,99523.44
2019-01-02T08:23:04.161Z,99529.48
2019-01-02T08:26:13.597Z,99531.17
2019-01-02T08:29:30.603Z,99536.74
2019-01-02T08:35:27.647Z,99537.61
2019-01-02T08:41:49.539Z,99545.77
2019-01-02T08:48:09.067Z,99554.89
2019-01-02T08:55:04.401Z,99550.11
2019-01-02T09:01:25.178Z,99561.23
2019-01-02T09:08:24.589Z,99586.61
2019-01-02T09:14:48.327Z,99592.16
2019-01-02T09:21:18.328Z,99594.45
2019-01-02T09:27:48.092Z,99594.06
2019-01-02T09:31:10.056Z,99598.38
2019-01-02T09:34:30.017Z,99592.73
2019-01-02T09:37:39.265Z,99599.92
2019-01-02T09:40:58.518Z,99596.50
2019-01-02T09:47:26.014Z,99594.14
2019-01-02T09:50:08.915Z,99598.63
2019-01-02T09:53:20.059Z,99603.80
2019-01-02T09:56:28.303Z,99597.84
2019-01-02T09:59:47.571Z,99593.09
2019-01-02T10:06:32.272Z,99592.66
2019-01-02T10:09:42.690Z,99587.01
2019-01-02T10:12:35.887Z,99589.67
2019-01-02T10:16:33.363Z,99589.70
2019-01-02T10:26:16.542Z,99581.56
2019-01-02T10:29:24.692Z,99577.05
2019-01-02T10:47:13.065Z,99580.22
2019-01-02T10:56:35.472Z,99578.99
2019-01-02T10:59:47.742Z,99579.23
2019-01-02T11:12:24.460Z,99575.31
2019-01-02T11:21:24.510Z,99572.13
2019-01-02T11:27:46.756Z,99565.09
2019-01-02T11:31:01.657Z,99385.68
2019-01-02T11:37:04.916Z,99561.21
2019-01-02T11:39:47.072Z,99570.21
2019-01-02T11:42:28.355Z,99552.49
2019-01-02T11:45:12.025Z,99536.14
2019-01-02T11:47:45.561Z,99534.30
2019-01-02T11:50:36.488Z,99529.52
2019-01-02T11:53:28.107Z,99542.74
2019-01-02T11:56:05.453Z,99524.22
2019-01-02T11:58:39.949Z,99530.70
2019-01-02T12:01:30.833Z,99527.36
2019-01-02T12:04:43.143Z,99374.09
2019-01-02T12:07:19.568Z,99519.52
2019-01-02T12:10:12.176Z,99526.34
2019-01-02T12:12:42.381Z,99525.48
2019-01-02T12:15:54.276Z,99515.43
2019-01-02T12:18:48.041Z,99521.27
2019-01-02T12:21:18.696Z,99524.67
2019-01-02T12:24:21.111Z,99524.59
2019-01-02T12:27:14.355Z,99522.81
2019-01-02T12:29:44.909Z,99515.39
2019-01-02T12:32:34.484Z,99522.13
2019-01-02T12:37:56.296Z,99514.54
2019-01-02T12:40:32.630Z,99521.17
2019-01-02T12:43:11.726Z,99515.97
2019-01-02T12:45:43.379Z,99516.08
2019-01-02T12:48:14.319Z,99507.05
2019-01-02T12:51:07.999Z,99510.26
2019-01-02T12:54:05.067Z,99509.19
2019-01-02T12:56:37.747Z,99520.81
2019-01-02T12:59:08.871Z,99500.77
2019-01-02T13:02:17.308Z,99501.34
2019-01-02T13:14:19.958Z,99548.22
2019-01-02T13:20:37.116Z,99549.84
2019-01-02T13:26:39.109Z,99545.20
2019-01-02T13:33:02.710Z,99540.92
2019-01-02T13:36:05.488Z,99540.55
2019-01-02T13:42:57.293Z,99540.48
2019-01-02T13:45:38.928Z,99546.00
2019-01-02T13:48:48.682Z,99550.77
2019-01-02T13:51:40.939Z,99551.67
2019-01-02T13:58:05.822Z,99547.81
2019-01-02T14:00:36.769Z,99555.33
2019-01-02T14:03:26.299Z,99560.00
2019-01-02T14:05:56.923Z,99561.19
2019-01-02T14:08:28.353Z,99564.40
2019-01-02T14:11:13.912Z,99562.36
2019-01-02T14:13:37.192Z,99567.66
2019-01-02T14:16:10.015Z,99567.70
2019-01-02T14:22:19.776Z,99569.70
2019-01-02T14:25:09.995Z,99575.39
2019-01-02T14:28:04.694Z,99577.94
2019-01-02T14:34:20.188Z,99575.97
2019-01-02T14:36:57.804Z,99587.71
2019-01-02T14:39:29.425Z,99576.09
2019-01-02T14:44:57.565Z,99583.08
2019-01-02T14:47:47.703Z,99588.30
2019-01-02T14:50:19.761Z,99591.72
2019-01-02T14:58:12.646Z,99607.37
2019-01-02T15:03:58.037Z,99618.66
2019-01-02T15:06:47.461Z,99616.21
2019-01-02T15:09:18.191Z,99614.95
2019-01-02T15:11:49.382Z,99624.02
2019-01-02T15:14:19.608Z,99627.13
2019-01-02T15:16:49.767Z,99628.89
2019-01-02T15:19:20.200Z,99621.92
2019-01-02T15:22:09.765Z,99634.30
2019-01-02T15:25:00.224Z,99643.69
2019-01-02T15:27:49.765Z,99643.30
2019-01-02T15:30:20.405Z,99649.80
2019-01-02T15:36:12.284Z,99646.88
2019-01-02T15:38:43.253Z,99656.81
2019-01-02T15:41:14.365Z,99655.30
2019-01-02T15:43:45.467Z,99656.79
2019-01-02T15:47:54.350Z,99659.89
2019-01-02T15:48:54.808Z,99661.48
2019-01-02T15:51:49.365Z,99674.44
2019-01-02T15:54:22.785Z,99667.45
2019-01-02T15:59:48.195Z,99674.70
2019-01-02T16:02:39.044Z,99677.78
2019-01-02T16:05:29.128Z,99689.83
2019-01-02T16:08:18.555Z,99694.58
2019-01-02T16:11:12.559Z,99693.80
2019-01-02T16:14:01.944Z,99695.89
2019-01-02T16:16:51.993Z,99704.50
2019-01-02T16:19:25.818Z,99717.11
2019-01-02T16:21:58.989Z,99716.39
2019-01-02T16:27:27.393Z,99719.53
2019-01-02T16:30:01.296Z,99727.23
2019-01-02T16:32:32.181Z,99731.17
2019-01-02T16:35:23.191Z,99726.06
2019-01-02T16:38:13.571Z,99721.36
2019-01-02T16:40:44.132Z,99592.26
2019-01-02T16:43:15.171Z,99725.31
2019-01-02T16:46:05.219Z,99725.69
2019-01-02T16:48:46.575Z,99732.20
2019-01-02T16:51:28.507Z,99740.84
2019-01-02T16:53:59.813Z,99740.40
2019-01-02T16:56:53.915Z,99741.26
2019-01-02T17:02:42.142Z,99753.37
2019-01-02T17:05:32.023Z,99749.51
2019-01-02T17:08:02.822Z,99742.66
2019-01-02T17:10:35.572Z,99742.17
2019-01-02T17:13:25.436Z,99744.75
2019-01-02T17:16:14.774Z,99748.18
2019-01-02T17:21:55.154Z,99752.09
2019-01-02T17:34:16.471Z,99760.28
2019-01-02T17:40:37.758Z,99773.73
2019-01-02T17:43:29.900Z,99789.67
2019-01-02T17:46:18.258Z,99777.98
2019-01-02T17:52:10.822Z,99789.70
2019-01-02T17:55:02.641Z,99798.70
2019-01-02T17:58:16.855Z,99799.09
2019-01-02T18:00:49.312Z,99806.88
2019-01-02T18:09:39.641Z,99812.48
2019-01-02T18:12:26.142Z,99823.66
2019-01-02T18:15:03.782Z,99823.70
2019-01-02T18:20:55.339Z,99824.99
2019-01-02T18:23:50.129Z,99825.83
2019-01-02T18:27:00.888Z,99662.11
2019-01-02T18:30:36.479Z,99771.67
2019-01-02T18:33:05.859Z,99835.33
2019-01-02T18:42:16.994Z,99840.92
2019-01-02T18:45:06.953Z,99847.41
2019-01-02T18:48:00.735Z,99852.12
2019-01-02T18:50:42.560Z,99850.39
2019-01-02T18:53:38.264Z,99856.44
2019-01-02T18:56:27.419Z,99849.15
2019-01-02T18:58:58.223Z,99853.03
2019-01-02T19:01:39.893Z,99859.47
2019-01-02T19:04:09.248Z,99855.14
2019-01-02T19:09:40.410Z,99859.05
2019-01-02T19:12:29.697Z,99859.06
2019-01-02T19:18:56.194Z,99857.75
2019-01-02T19:21:45.506Z,99866.36
2019-01-02T19:24:35.190Z,99862.05
2019-01-02T19:27:05.393Z,99862.47
2019-01-02T19:29:36.551Z,99866.36
2019-01-02T19:32:25.777Z,99881.84
2019-01-02T19:38:28.094Z,99880.13
2019-01-02T19:40:58.636Z,99889.14
2019-01-02T19:43:28.830Z,99892.14
2019-01-02T19:46:24.169Z,99890.83
2019-01-02T19:48:54.965Z,99892.97
2019-01-02T19:51:26.856Z,99890.79
2019-01-02T19:53:58.709Z,99894.25
2019-01-02T19:56:31.818Z,99889.47
2019-01-02T19:59:02.012Z,99886.44
2019-01-02T20:04:10.592Z,99894.63
2019-01-02T20:06:40.903Z,99893.38
2019-01-02T20:09:13.644Z,99887.31
2019-01-02T20:15:12.252Z,99886.84
2019-01-02T20:18:01.498Z,99889.45
2019-01-02T20:20:31.694Z,99887.75
2019-01-02T20:23:02.018Z,99890.79
2019-01-02T20:26:06.118Z,99899.38
2019-01-02T20:28:36.792Z,99898.53
2019-01-02T20:34:04.553Z,99893.80
2019-01-02T20:36:40.586Z,99897.66
2019-01-02T20:39:12.173Z,99902.36
2019-01-02T20:42:01.740Z,99897.20
2019-01-02T20:44:32.018Z,99898.06
2019-01-02T20:47:21.515Z,99900.63
2019-01-02T20:56:00.198Z,99905.78
2019-01-02T20:58:43.060Z,99898.92
2019-01-02T21:01:24.131Z,99910.06
2019-01-02T21:03:58.329Z,99916.92
2019-01-02T21:06:29.474Z,99914.30
2019-01-02T21:09:01.374Z,99909.59
2019-01-02T21:11:31.647Z,99913.00
2019-01-02T21:14:06.264Z,99913.45
2019-01-02T21:20:00.880Z,99915.61
2019-01-02T21:22:33.941Z,99907.47
2019-01-02T21:25:04.759Z,99904.89
2019-01-02T21:27:36.240Z,99901.00
2019-01-02T21:30:08.001Z,99901.41
2019-01-02T21:32:38.459Z,99904.41
2019-01-02T21:35:12.618Z,99906.52
2019-01-02T21:37:43.527Z,99912.08
2019-01-02T21:40:14.072Z,99914.19
2019-01-02T21:42:44.307Z,99924.94
2019-01-02T21:45:20.532Z,99919.77
2019-01-02T21:47:50.971Z,99925.70
2019-01-02T21:50:23.550Z,99926.64
2019-01-02T21:52:55.011Z,99926.19
2019-01-02T21:55:27.200Z,99927.46
2019-01-02T22:03:16.858Z,99922.80
2019-01-02T22:05:50.094Z,99927.05
2019-01-02T22:08:20.344Z,99925.73
2019-01-02T22:10:57.108Z,99918.83
2019-01-02T22:13:28.123Z,99920.17
2019-01-02T22:15:58.324Z,99920.59
2019-01-02T22:18:32.068Z,99924.84
2019-01-02T22:21:03.874Z,99924.36
2019-01-02T22:23:40.274Z,99928.67
2019-01-02T22:26:10.615Z,99930.84
2019-01-02T22:29:24.459Z,99933.04
2019-01-02T22:32:31.963Z,99925.78
2019-01-02T22:35:02.181Z,99927.52
2019-01-02T22:37:33.803Z,99934.77
2019-01-02T22:40:05.389Z,99930.89
2019-01-02T22:42:37.513Z,99930.84
2019-01-02T22:45:08.238Z,99935.58
2019-01-02T22:47:41.144Z,99936.44
2019-01-02T22:50:12.081Z,99935.59
2019-01-02T22:52:42.796Z,99939.92
2019-01-02T22:55:20.487Z,99948.09
2019-01-02T22:58:05.833Z,99950.28
2019-01-02T23:01:07.682Z,99960.55
2019-01-02T23:04:02.553Z,99955.81
2019-01-02T23:07:09.921Z,99956.22
2019-01-02T23:10:18.686Z,99957.94
2019-01-02T23:13:24.320Z,99964.73
2019-01-02T23:16:10.451Z,99967.28
2019-01-02T23:19:43.132Z,99971.54
2019-01-02T23:22:41.769Z,99973.28
2019-01-02T23:25:30.212Z,99975.52
2019-01-02T23:28:25.014Z,99978.19
2019-01-02T23:31:12.796Z,99980.39
2019-01-02T23:34:00.973Z,99988.11
2019-01-02T23:36:56.437Z,100000.06
2019-01-02T23:40:03.693Z,99994.00
2019-01-02T23:42:51.268Z,99998.73
2019-01-02T23:45:49.586Z,99999.97
2019-01-02T23:48:40.966Z,100004.70
2019-01-02T23:51:32.536Z,100003.27
2019-01-02T23:54:58.758Z,99997.24
2019-01-02T23:57:48.130Z,100003.61
